sensor_id;sensor_type;location;lat;lon;timestamp;P1;durP1;ratioP1;P2;durP2;ratioP2
11386;SDS011;5748;53.102;8.456;2023-03-01T00:01:20;2.67;;;2.47;;
11386;SDS011;5748;53.102;8.456;2023-03-01T00:03:51;3.00;;;2.63;;
11386;SDS011;5748;53.102;8.456;2023-03-01T00:06:20;2.90;;;2.43;;
11386;SDS011;5748;53.102;8.456;2023-03-01T00:08:47;2.40;;;2.17;;
11386;SDS011;5748;53.102;8.456;2023-03-01T00:11:15;2.80;;;2.27;;
11386;SDS011;5748;53.102;8.456;2023-03-01T00:13:47;2.93;;;2.50;;
11386;SDS011;5748;53.102;8.456;2023-03-01T00:16:21;2.90;;;2.57;;
11386;SDS011;5748;53.102;8.456;2023-03-01T00:18:50;3.03;;;2.60;;
11386;SDS011;5748;53.102;8.456;2023-03-01T00:21:17;2.70;;;2.40;;
11386;SDS011;5748;53.102;8.456;2023-03-01T00:23:46;2.70;;;2.37;;
11386;SDS011;5748;53.102;8.456;2023-03-01T00:26:14;2.37;;;2.17;;
11386;SDS011;5748;53.102;8.456;2023-03-01T00:28:42;2.80;;;2.40;;
11386;SDS011;5748;53.102;8.456;2023-03-01T00:31:11;2.67;;;2.33;;
11386;SDS011;5748;53.102;8.456;2023-03-01T00:33:45;2.90;;;2.43;;
11386;SDS011;5748;53.102;8.456;2023-03-01T00:36:13;3.13;;;2.70;;
11386;SDS011;5748;53.102;8.456;2023-03-01T00:38:42;2.70;;;2.40;;
11386;SDS011;5748;53.102;8.456;2023-03-01T00:41:11;3.00;;;2.70;;
11386;SDS011;5748;53.102;8.456;2023-03-01T00:43:42;3.20;;;2.40;;
11386;SDS011;5748;53.102;8.456;2023-03-01T00:46:11;3.20;;;2.27;;
11386;SDS011;5748;53.102;8.456;2023-03-01T00:48:41;3.50;;;2.60;;
11386;SDS011;5748;53.102;8.456;2023-03-01T00:51:10;2.63;;;2.30;;
11386;SDS011;5748;53.102;8.456;2023-03-01T00:53:44;3.40;;;2.93;;
11386;SDS011;5748;53.102;8.456;2023-03-01T00:56:13;4.27;;;3.23;;
11386;SDS011;5748;53.102;8.456;2023-03-01T00:58:41;5.10;;;3.70;;
11386;SDS011;5748;53.102;8.456;2023-03-01T01:01:10;4.37;;;3.33;;
11386;SDS011;5748;53.102;8.456;2023-03-01T01:03:43;4.27;;;3.17;;
11386;SDS011;5748;53.102;8.456;2023-03-01T01:06:14;4.60;;;3.57;;
11386;SDS011;5748;53.102;8.456;2023-03-01T01:08:44;5.13;;;3.80;;
11386;SDS011;5748;53.102;8.456;2023-03-01T01:11:11;5.13;;;3.70;;
11386;SDS011;5748;53.102;8.456;2023-03-01T01:13:39;5.13;;;3.80;;
11386;SDS011;5748;53.102;8.456;2023-03-01T01:16:07;4.87;;;3.40;;
11386;SDS011;5748;53.102;8.456;2023-03-01T01:18:34;4.60;;;3.60;;
11386;SDS011;5748;53.102;8.456;2023-03-01T01:21:05;4.73;;;3.70;;
11386;SDS011;5748;53.102;8.456;2023-03-01T01:23:36;4.80;;;3.87;;
11386;SDS011;5748;53.102;8.456;2023-03-01T01:26:05;4.00;;;3.23;;
11386;SDS011;5748;53.102;8.456;2023-03-01T01:28:32;4.13;;;3.37;;
11386;SDS011;5748;53.102;8.456;2023-03-01T01:31:03;3.23;;;2.90;;
11386;SDS011;5748;53.102;8.456;2023-03-01T01:33:31;3.23;;;2.93;;
11386;SDS011;5748;53.102;8.456;2023-03-01T01:35:58;4.63;;;3.50;;
11386;SDS011;5748;53.102;8.456;2023-03-01T01:38:26;3.63;;;3.20;;
11386;SDS011;5748;53.102;8.456;2023-03-01T01:41:01;3.70;;;3.00;;
11386;SDS011;5748;53.102;8.456;2023-03-01T01:43:29;4.33;;;3.33;;
11386;SDS011;5748;53.102;8.456;2023-03-01T01:46:01;4.13;;;3.40;;
11386;SDS011;5748;53.102;8.456;2023-03-01T01:48:32;4.07;;;3.13;;
11386;SDS011;5748;53.102;8.456;2023-03-01T01:51:07;3.57;;;3.07;;
11386;SDS011;5748;53.102;8.456;2023-03-01T01:53:40;3.80;;;2.97;;
11386;SDS011;5748;53.102;8.456;2023-03-01T01:56:10;4.20;;;3.07;;
11386;SDS011;5748;53.102;8.456;2023-03-01T01:58:39;3.37;;;2.93;;
11386;SDS011;5748;53.102;8.456;2023-03-01T02:01:09;4.30;;;3.00;;
11386;SDS011;5748;53.102;8.456;2023-03-01T02:03:37;3.20;;;2.90;;
11386;SDS011;5748;53.102;8.456;2023-03-01T02:06:12;3.40;;;3.00;;
11386;SDS011;5748;53.102;8.456;2023-03-01T02:08:44;3.13;;;2.80;;
11386;SDS011;5748;53.102;8.456;2023-03-01T02:11:16;3.83;;;3.23;;
11386;SDS011;5748;53.102;8.456;2023-03-01T02:13:44;3.07;;;2.77;;
11386;SDS011;5748;53.102;8.456;2023-03-01T02:16:15;3.20;;;2.70;;
11386;SDS011;5748;53.102;8.456;2023-03-01T02:18:43;3.67;;;3.10;;
11386;SDS011;5748;53.102;8.456;2023-03-01T02:21:17;3.30;;;3.00;;
11386;SDS011;5748;53.102;8.456;2023-03-01T02:24:04;3.40;;;3.10;;
11386;SDS011;5748;53.102;8.456;2023-03-01T02:26:46;3.17;;;2.87;;
11386;SDS011;5748;53.102;8.456;2023-03-01T02:29:17;3.60;;;2.90;;
11386;SDS011;5748;53.102;8.456;2023-03-01T02:31:44;2.77;;;2.53;;
11386;SDS011;5748;53.102;8.456;2023-03-01T02:34:12;2.93;;;2.63;;
11386;SDS011;5748;53.102;8.456;2023-03-01T02:36:43;3.20;;;2.90;;
11386;SDS011;5748;53.102;8.456;2023-03-01T02:39:14;3.40;;;2.87;;
11386;SDS011;5748;53.102;8.456;2023-03-01T02:41:46;3.30;;;3.00;;
11386;SDS011;5748;53.102;8.456;2023-03-01T02:44:17;2.90;;;2.60;;
11386;SDS011;5748;53.102;8.456;2023-03-01T02:46:46;3.20;;;2.87;;
11386;SDS011;5748;53.102;8.456;2023-03-01T02:49:23;3.20;;;2.67;;
11386;SDS011;5748;53.102;8.456;2023-03-01T02:54:55;2.80;;;2.60;;
11386;SDS011;5748;53.102;8.456;2023-03-01T02:57:27;2.83;;;2.50;;
11386;SDS011;5748;53.102;8.456;2023-03-01T03:00:02;2.97;;;2.63;;
11386;SDS011;5748;53.102;8.456;2023-03-01T03:02:33;2.97;;;2.67;;
11386;SDS011;5748;53.102;8.456;2023-03-01T03:05:05;3.10;;;2.80;;
11386;SDS011;5748;53.102;8.456;2023-03-01T03:07:38;3.23;;;2.80;;
11386;SDS011;5748;53.102;8.456;2023-03-01T03:10:09;2.97;;;2.70;;
11386;SDS011;5748;53.102;8.456;2023-03-01T03:12:39;3.03;;;2.73;;
11386;SDS011;5748;53.102;8.456;2023-03-01T03:15:09;3.27;;;2.83;;
11386;SDS011;5748;53.102;8.456;2023-03-01T03:17:38;2.83;;;2.63;;
11386;SDS011;5748;53.102;8.456;2023-03-01T03:20:09;2.40;;;2.20;;
11386;SDS011;5748;53.102;8.456;2023-03-01T03:25:19;2.80;;;2.57;;
11386;SDS011;5748;53.102;8.456;2023-03-01T03:27:48;3.03;;;2.47;;
11386;SDS011;5748;53.102;8.456;2023-03-01T03:30:23;2.70;;;2.40;;
11386;SDS011;5748;53.102;8.456;2023-03-01T03:32:53;2.47;;;2.27;;
11386;SDS011;5748;53.102;8.456;2023-03-01T03:35:22;2.57;;;2.37;;
11386;SDS011;5748;53.102;8.456;2023-03-01T03:37:51;3.00;;;2.70;;
11386;SDS011;5748;53.102;8.456;2023-03-01T03:40:28;2.90;;;2.30;;
11386;SDS011;5748;53.102;8.456;2023-03-01T03:42:57;2.63;;;2.40;;
11386;SDS011;5748;53.102;8.456;2023-03-01T03:45:44;3.00;;;2.63;;
11386;SDS011;5748;53.102;8.456;2023-03-01T03:48:12;2.47;;;2.27;;
11386;SDS011;5748;53.102;8.456;2023-03-01T03:50:40;2.23;;;2.03;;
11386;SDS011;5748;53.102;8.456;2023-03-01T03:53:08;2.40;;;2.20;;
11386;SDS011;5748;53.102;8.456;2023-03-01T03:55:40;2.97;;;2.50;;
11386;SDS011;5748;53.102;8.456;2023-03-01T03:58:08;2.83;;;2.53;;
11386;SDS011;5748;53.102;8.456;2023-03-01T04:00:37;2.80;;;2.30;;
11386;SDS011;5748;53.102;8.456;2023-03-01T04:03:07;2.57;;;2.37;;
11386;SDS011;5748;53.102;8.456;2023-03-01T04:05:36;3.47;;;2.53;;
11386;SDS011;5748;53.102;8.456;2023-03-01T04:08:04;2.60;;;2.40;;
11386;SDS011;5748;53.102;8.456;2023-03-01T04:10:33;2.77;;;2.50;;
11386;SDS011;5748;53.102;8.456;2023-03-01T04:13:02;2.30;;;2.10;;
11386;SDS011;5748;53.102;8.456;2023-03-01T04:15:31;2.47;;;2.10;;
11386;SDS011;5748;53.102;8.456;2023-03-01T04:17:59;2.90;;;2.40;;
11386;SDS011;5748;53.102;8.456;2023-03-01T04:20:29;2.70;;;2.50;;
11386;SDS011;5748;53.102;8.456;2023-03-01T04:23:00;2.80;;;2.40;;
11386;SDS011;5748;53.102;8.456;2023-03-01T04:25:35;2.63;;;2.43;;
11386;SDS011;5748;53.102;8.456;2023-03-01T04:28:04;2.77;;;2.50;;
11386;SDS011;5748;53.102;8.456;2023-03-01T04:30:32;3.43;;;2.30;;
11386;SDS011;5748;53.102;8.456;2023-03-01T04:33:01;2.60;;;2.37;;
11386;SDS011;5748;53.102;8.456;2023-03-01T04:35:31;2.60;;;2.37;;
11386;SDS011;5748;53.102;8.456;2023-03-01T04:37:59;2.60;;;2.40;;
11386;SDS011;5748;53.102;8.456;2023-03-01T04:40:27;2.87;;;2.60;;
11386;SDS011;5748;53.102;8.456;2023-03-01T04:43:04;2.60;;;2.40;;
11386;SDS011;5748;53.102;8.456;2023-03-01T04:45:31;2.67;;;2.47;;
11386;SDS011;5748;53.102;8.456;2023-03-01T04:48:00;2.90;;;2.60;;
11386;SDS011;5748;53.102;8.456;2023-03-01T04:50:28;2.77;;;2.47;;
11386;SDS011;5748;53.102;8.456;2023-03-01T04:52:56;2.90;;;2.50;;
11386;SDS011;5748;53.102;8.456;2023-03-01T04:55:24;2.60;;;2.40;;
11386;SDS011;5748;53.102;8.456;2023-03-01T04:57:52;2.73;;;2.53;;
11386;SDS011;5748;53.102;8.456;2023-03-01T05:00:22;2.80;;;2.50;;
11386;SDS011;5748;53.102;8.456;2023-03-01T05:02:50;2.90;;;2.50;;
11386;SDS011;5748;53.102;8.456;2023-03-01T05:05:21;2.77;;;2.40;;
11386;SDS011;5748;53.102;8.456;2023-03-01T05:07:52;2.80;;;2.50;;
11386;SDS011;5748;53.102;8.456;2023-03-01T05:10:22;3.10;;;2.80;;
11386;SDS011;5748;53.102;8.456;2023-03-01T05:13:02;2.70;;;2.50;;
11386;SDS011;5748;53.102;8.456;2023-03-01T05:15:30;3.80;;;3.13;;
11386;SDS011;5748;53.102;8.456;2023-03-01T05:17:58;2.90;;;2.60;;
11386;SDS011;5748;53.102;8.456;2023-03-01T05:20:26;3.40;;;2.47;;
11386;SDS011;5748;53.102;8.456;2023-03-01T05:22:57;2.70;;;2.47;;
11386;SDS011;5748;53.102;8.456;2023-03-01T05:25:32;2.87;;;2.63;;
11386;SDS011;5748;53.102;8.456;2023-03-01T05:28:05;3.17;;;2.70;;
11386;SDS011;5748;53.102;8.456;2023-03-01T05:33:10;3.77;;;2.90;;
11386;SDS011;5748;53.102;8.456;2023-03-01T05:35:44;3.03;;;2.70;;
11386;SDS011;5748;53.102;8.456;2023-03-01T05:38:22;4.40;;;2.63;;
11386;SDS011;5748;53.102;8.456;2023-03-01T05:41:02;4.47;;;2.70;;
11386;SDS011;5748;53.102;8.456;2023-03-01T05:43:34;3.37;;;2.87;;
11386;SDS011;5748;53.102;8.456;2023-03-01T05:46:05;3.10;;;2.80;;
11386;SDS011;5748;53.102;8.456;2023-03-01T05:48:32;3.43;;;2.90;;
11386;SDS011;5748;53.102;8.456;2023-03-01T05:50:59;3.20;;;2.90;;
11386;SDS011;5748;53.102;8.456;2023-03-01T05:53:26;3.10;;;2.80;;
11386;SDS011;5748;53.102;8.456;2023-03-01T05:55:53;3.73;;;3.37;;
11386;SDS011;5748;53.102;8.456;2023-03-01T05:58:22;3.67;;;3.37;;
11386;SDS011;5748;53.102;8.456;2023-03-01T06:00:49;3.70;;;3.33;;
11386;SDS011;5748;53.102;8.456;2023-03-01T06:03:17;3.77;;;3.27;;
11386;SDS011;5748;53.102;8.456;2023-03-01T06:05:44;3.73;;;3.10;;
11386;SDS011;5748;53.102;8.456;2023-03-01T06:08:11;3.67;;;2.87;;
11386;SDS011;5748;53.102;8.456;2023-03-01T06:10:39;3.80;;;3.40;;
11386;SDS011;5748;53.102;8.456;2023-03-01T06:13:06;3.83;;;3.40;;
11386;SDS011;5748;53.102;8.456;2023-03-01T06:15:42;3.47;;;3.17;;
11386;SDS011;5748;53.102;8.456;2023-03-01T06:18:09;3.23;;;2.93;;
11386;SDS011;5748;53.102;8.456;2023-03-01T06:23:26;3.27;;;3.00;;
11386;SDS011;5748;53.102;8.456;2023-03-01T06:25:55;3.40;;;3.10;;
11386;SDS011;5748;53.102;8.456;2023-03-01T06:28:22;3.30;;;3.00;;
11386;SDS011;5748;53.102;8.456;2023-03-01T06:30:50;3.47;;;3.17;;
11386;SDS011;5748;53.102;8.456;2023-03-01T06:33:17;3.40;;;3.10;;
11386;SDS011;5748;53.102;8.456;2023-03-01T06:35:46;3.20;;;2.90;;
11386;SDS011;5748;53.102;8.456;2023-03-01T06:38:13;3.90;;;3.00;;
11386;SDS011;5748;53.102;8.456;2023-03-01T06:40:42;3.50;;;3.20;;
11386;SDS011;5748;53.102;8.456;2023-03-01T06:43:10;3.73;;;3.33;;
11386;SDS011;5748;53.102;8.456;2023-03-01T06:45:38;3.73;;;3.33;;
11386;SDS011;5748;53.102;8.456;2023-03-01T06:48:06;3.27;;;2.97;;
11386;SDS011;5748;53.102;8.456;2023-03-01T06:50:35;3.80;;;3.50;;
11386;SDS011;5748;53.102;8.456;2023-03-01T06:53:03;3.93;;;3.50;;
11386;SDS011;5748;53.102;8.456;2023-03-01T06:55:30;3.90;;;3.50;;
11386;SDS011;5748;53.102;8.456;2023-03-01T06:57:58;4.43;;;3.93;;
11386;SDS011;5748;53.102;8.456;2023-03-01T07:00:27;3.80;;;3.43;;
11386;SDS011;5748;53.102;8.456;2023-03-01T07:02:57;3.97;;;3.57;;
11386;SDS011;5748;53.102;8.456;2023-03-01T07:05:28;3.97;;;3.50;;
11386;SDS011;5748;53.102;8.456;2023-03-01T07:07:55;4.33;;;3.47;;
11386;SDS011;5748;53.102;8.456;2023-03-01T07:12:59;4.10;;;3.63;;
11386;SDS011;5748;53.102;8.456;2023-03-01T07:15:27;3.93;;;3.43;;
11386;SDS011;5748;53.102;8.456;2023-03-01T07:17:55;4.37;;;3.97;;
11386;SDS011;5748;53.102;8.456;2023-03-01T07:20:23;4.40;;;3.67;;
11386;SDS011;5748;53.102;8.456;2023-03-01T07:22:53;4.30;;;3.90;;
11386;SDS011;5748;53.102;8.456;2023-03-01T07:25:21;4.20;;;3.80;;
11386;SDS011;5748;53.102;8.456;2023-03-01T07:27:49;4.27;;;3.67;;
11386;SDS011;5748;53.102;8.456;2023-03-01T07:30:24;4.33;;;3.93;;
11386;SDS011;5748;53.102;8.456;2023-03-01T07:32:53;4.70;;;4.20;;
11386;SDS011;5748;53.102;8.456;2023-03-01T07:35:21;5.07;;;4.47;;
11386;SDS011;5748;53.102;8.456;2023-03-01T07:37:48;5.03;;;4.40;;
11386;SDS011;5748;53.102;8.456;2023-03-01T07:40:18;4.57;;;4.13;;
11386;SDS011;5748;53.102;8.456;2023-03-01T07:42:45;4.40;;;4.00;;
11386;SDS011;5748;53.102;8.456;2023-03-01T07:45:12;4.60;;;4.10;;
11386;SDS011;5748;53.102;8.456;2023-03-01T07:47:40;4.23;;;3.70;;
11386;SDS011;5748;53.102;8.456;2023-03-01T07:50:07;4.57;;;4.03;;
11386;SDS011;5748;53.102;8.456;2023-03-01T07:52:36;5.13;;;4.10;;
11386;SDS011;5748;53.102;8.456;2023-03-01T07:55:03;4.27;;;3.87;;
11386;SDS011;5748;53.102;8.456;2023-03-01T07:57:33;5.13;;;4.63;;
11386;SDS011;5748;53.102;8.456;2023-03-01T08:00:00;5.10;;;4.60;;
11386;SDS011;5748;53.102;8.456;2023-03-01T08:02:27;5.03;;;4.53;;
11386;SDS011;5748;53.102;8.456;2023-03-01T08:04:54;5.23;;;4.50;;
11386;SDS011;5748;53.102;8.456;2023-03-01T08:07:21;5.03;;;4.53;;
11386;SDS011;5748;53.102;8.456;2023-03-01T08:09:48;6.13;;;4.60;;
11386;SDS011;5748;53.102;8.456;2023-03-01T08:12:15;6.47;;;5.37;;
11386;SDS011;5748;53.102;8.456;2023-03-01T08:14:44;5.97;;;5.30;;
11386;SDS011;5748;53.102;8.456;2023-03-01T08:17:13;5.93;;;5.33;;
11386;SDS011;5748;53.102;8.456;2023-03-01T08:19:40;5.57;;;4.97;;
11386;SDS011;5748;53.102;8.456;2023-03-01T08:22:08;5.60;;;5.10;;
11386;SDS011;5748;53.102;8.456;2023-03-01T08:24:35;5.57;;;4.83;;
11386;SDS011;5748;53.102;8.456;2023-03-01T08:27:02;4.97;;;4.47;;
11386;SDS011;5748;53.102;8.456;2023-03-01T08:29:30;5.93;;;4.60;;
11386;SDS011;5748;53.102;8.456;2023-03-01T08:31:59;5.53;;;4.93;;
11386;SDS011;5748;53.102;8.456;2023-03-01T08:34:26;7.20;;;5.20;;
11386;SDS011;5748;53.102;8.456;2023-03-01T08:36:53;5.80;;;5.10;;
11386;SDS011;5748;53.102;8.456;2023-03-01T08:39:20;5.73;;;5.13;;
11386;SDS011;5748;53.102;8.456;2023-03-01T08:41:47;5.73;;;5.07;;
11386;SDS011;5748;53.102;8.456;2023-03-01T08:44:14;6.00;;;5.20;;
11386;SDS011;5748;53.102;8.456;2023-03-01T08:46:42;5.97;;;5.37;;
11386;SDS011;5748;53.102;8.456;2023-03-01T08:49:13;5.80;;;5.20;;
11386;SDS011;5748;53.102;8.456;2023-03-01T08:51:42;5.33;;;4.83;;
11386;SDS011;5748;53.102;8.456;2023-03-01T08:54:10;5.33;;;4.83;;
11386;SDS011;5748;53.102;8.456;2023-03-01T08:56:40;5.20;;;4.70;;
11386;SDS011;5748;53.102;8.456;2023-03-01T08:59:09;4.53;;;4.10;;
11386;SDS011;5748;53.102;8.456;2023-03-01T09:01:36;4.20;;;3.80;;
11386;SDS011;5748;53.102;8.456;2023-03-01T09:04:03;4.53;;;4.10;;
11386;SDS011;5748;53.102;8.456;2023-03-01T09:06:31;4.27;;;3.87;;
11386;SDS011;5748;53.102;8.456;2023-03-01T09:08:59;3.70;;;3.30;;
11386;SDS011;5748;53.102;8.456;2023-03-01T09:11:28;3.60;;;3.30;;
11386;SDS011;5748;53.102;8.456;2023-03-01T09:13:55;3.83;;;3.50;;
11386;SDS011;5748;53.102;8.456;2023-03-01T09:16:23;3.60;;;3.30;;
11386;SDS011;5748;53.102;8.456;2023-03-01T09:18:50;3.50;;;3.20;;
11386;SDS011;5748;53.102;8.456;2023-03-01T09:21:20;3.10;;;2.80;;
11386;SDS011;5748;53.102;8.456;2023-03-01T09:23:50;3.23;;;2.93;;
11386;SDS011;5748;53.102;8.456;2023-03-01T09:26:18;3.33;;;3.00;;
11386;SDS011;5748;53.102;8.456;2023-03-01T09:28:48;3.17;;;2.87;;
11386;SDS011;5748;53.102;8.456;2023-03-01T09:31:17;2.80;;;2.60;;
11386;SDS011;5748;53.102;8.456;2023-03-01T09:33:46;2.70;;;2.50;;
11386;SDS011;5748;53.102;8.456;2023-03-01T09:36:16;2.83;;;2.47;;
11386;SDS011;5748;53.102;8.456;2023-03-01T09:38:45;2.70;;;2.43;;
11386;SDS011;5748;53.102;8.456;2023-03-01T09:41:18;2.97;;;2.70;;
11386;SDS011;5748;53.102;8.456;2023-03-01T09:44:05;2.80;;;2.50;;
11386;SDS011;5748;53.102;8.456;2023-03-01T09:46:44;2.80;;;2.50;;
11386;SDS011;5748;53.102;8.456;2023-03-01T09:49:14;2.70;;;2.50;;
11386;SDS011;5748;53.102;8.456;2023-03-01T09:51:47;2.60;;;2.40;;
11386;SDS011;5748;53.102;8.456;2023-03-01T09:54:22;2.50;;;2.30;;
11386;SDS011;5748;53.102;8.456;2023-03-01T09:56:56;2.47;;;2.27;;
11386;SDS011;5748;53.102;8.456;2023-03-01T09:59:36;1.93;;;1.83;;
11386;SDS011;5748;53.102;8.456;2023-03-01T10:02:25;3.47;;;2.00;;
11386;SDS011;5748;53.102;8.456;2023-03-01T10:05:00;2.10;;;1.90;;
11386;SDS011;5748;53.102;8.456;2023-03-01T10:07:42;2.53;;;1.77;;
11386;SDS011;5748;53.102;8.456;2023-03-01T10:10:16;1.90;;;1.80;;
11386;SDS011;5748;53.102;8.456;2023-03-01T10:12:54;2.20;;;2.00;;
11386;SDS011;5748;53.102;8.456;2023-03-01T10:15:25;2.17;;;1.80;;
11386;SDS011;5748;53.102;8.456;2023-03-01T10:18:01;1.80;;;1.40;;
11386;SDS011;5748;53.102;8.456;2023-03-01T10:20:41;1.40;;;1.30;;
11386;SDS011;5748;53.102;8.456;2023-03-01T10:23:13;1.50;;;1.40;;
11386;SDS011;5748;53.102;8.456;2023-03-01T10:25:43;1.73;;;1.63;;
11386;SDS011;5748;53.102;8.456;2023-03-01T10:28:25;1.80;;;1.70;;
11386;SDS011;5748;53.102;8.456;2023-03-01T10:30:57;1.50;;;1.40;;
11386;SDS011;5748;53.102;8.456;2023-03-01T10:33:26;1.92;;;1.80;;
11386;SDS011;5748;53.102;8.456;2023-03-01T10:35:55;2.33;;;2.10;;
11386;SDS011;5748;53.102;8.456;2023-03-01T10:38:23;1.85;;;1.70;;
11386;SDS011;5748;53.102;8.456;2023-03-01T10:40:52;2.10;;;1.90;;
11386;SDS011;5748;53.102;8.456;2023-03-01T10:43:23;2.15;;;1.77;;
11386;SDS011;5748;53.102;8.456;2023-03-01T10:45:53;2.00;;;1.80;;
11386;SDS011;5748;53.102;8.456;2023-03-01T10:48:20;2.20;;;2.00;;
11386;SDS011;5748;53.102;8.456;2023-03-01T10:51:04;2.72;;;2.13;;
11386;SDS011;5748;53.102;8.456;2023-03-01T10:53:34;2.33;;;2.13;;
11386;SDS011;5748;53.102;8.456;2023-03-01T10:56:04;2.20;;;2.00;;
11386;SDS011;5748;53.102;8.456;2023-03-01T10:58:36;2.15;;;1.95;;
11386;SDS011;5748;53.102;8.456;2023-03-01T11:01:06;2.20;;;2.00;;
11386;SDS011;5748;53.102;8.456;2023-03-01T11:04:03;2.33;;;2.13;;
11386;SDS011;5748;53.102;8.456;2023-03-01T11:06:38;2.70;;;2.07;;
11386;SDS011;5748;53.102;8.456;2023-03-01T11:09:13;2.37;;;2.17;;
11386;SDS011;5748;53.102;8.456;2023-03-01T11:11:43;2.70;;;2.50;;
11386;SDS011;5748;53.102;8.456;2023-03-01T11:14:15;3.07;;;2.83;;
11386;SDS011;5748;53.102;8.456;2023-03-01T11:16:45;3.10;;;2.90;;
11386;SDS011;5748;53.102;8.456;2023-03-01T11:19:19;3.40;;;3.10;;
11386;SDS011;5748;53.102;8.456;2023-03-01T11:21:51;3.33;;;3.03;;
11386;SDS011;5748;53.102;8.456;2023-03-01T11:24:28;3.23;;;2.93;;
11386;SDS011;5748;53.102;8.456;2023-03-01T11:27:03;3.57;;;3.27;;
11386;SDS011;5748;53.102;8.456;2023-03-01T11:29:40;3.80;;;3.50;;
11386;SDS011;5748;53.102;8.456;2023-03-01T11:32:12;3.63;;;3.33;;
11386;SDS011;5748;53.102;8.456;2023-03-01T11:34:42;3.83;;;3.47;;
11386;SDS011;5748;53.102;8.456;2023-03-01T11:37:21;3.60;;;3.30;;
11386;SDS011;5748;53.102;8.456;2023-03-01T11:39:59;3.43;;;3.13;;
11386;SDS011;5748;53.102;8.456;2023-03-01T11:42:40;4.40;;;3.50;;
11386;SDS011;5748;53.102;8.456;2023-03-01T11:45:18;3.60;;;3.30;;
11386;SDS011;5748;53.102;8.456;2023-03-01T11:48:01;3.53;;;3.23;;
11386;SDS011;5748;53.102;8.456;2023-03-01T11:50:50;3.80;;;3.50;;
11386;SDS011;5748;53.102;8.456;2023-03-01T11:53:25;3.83;;;3.30;;
11386;SDS011;5748;53.102;8.456;2023-03-01T11:56:09;3.47;;;3.17;;
11386;SDS011;5748;53.102;8.456;2023-03-01T11:58:59;3.83;;;3.53;;
11386;SDS011;5748;53.102;8.456;2023-03-01T12:01:54;4.00;;;3.70;;
11386;SDS011;5748;53.102;8.456;2023-03-01T12:05:00;4.23;;;3.93;;
11386;SDS011;5748;53.102;8.456;2023-03-01T12:07:50;4.30;;;3.90;;
11386;SDS011;5748;53.102;8.456;2023-03-01T12:10:26;3.93;;;3.60;;
11386;SDS011;5748;53.102;8.456;2023-03-01T12:13:01;4.20;;;3.80;;
11386;SDS011;5748;53.102;8.456;2023-03-01T12:15:52;4.70;;;4.30;;
11386;SDS011;5748;53.102;8.456;2023-03-01T12:18:56;4.17;;;3.77;;
11386;SDS011;5748;53.102;8.456;2023-03-01T12:21:59;4.13;;;3.83;;
11386;SDS011;5748;53.102;8.456;2023-03-01T12:24:47;4.20;;;3.80;;
11386;SDS011;5748;53.102;8.456;2023-03-01T12:27:53;4.60;;;4.20;;
11386;SDS011;5748;53.102;8.456;2023-03-01T12:31:07;4.33;;;3.93;;
11386;SDS011;5748;53.102;8.456;2023-03-01T12:34:11;4.03;;;3.73;;
11386;SDS011;5748;53.102;8.456;2023-03-01T12:37:07;3.80;;;3.50;;
11386;SDS011;5748;53.102;8.456;2023-03-01T12:40:00;4.00;;;3.70;;
11386;SDS011;5748;53.102;8.456;2023-03-01T12:42:44;4.37;;;4.00;;
11386;SDS011;5748;53.102;8.456;2023-03-01T12:45:33;3.80;;;3.50;;
11386;SDS011;5748;53.102;8.456;2023-03-01T12:48:17;4.10;;;3.80;;
11386;SDS011;5748;53.102;8.456;2023-03-01T12:51:04;4.27;;;3.87;;
11386;SDS011;5748;53.102;8.456;2023-03-01T12:53:36;3.87;;;3.57;;
11386;SDS011;5748;53.102;8.456;2023-03-01T12:56:10;3.93;;;3.63;;
11386;SDS011;5748;53.102;8.456;2023-03-01T12:58:42;4.77;;;4.37;;
11386;SDS011;5748;53.102;8.456;2023-03-01T13:01:26;5.00;;;4.60;;
11386;SDS011;5748;53.102;8.456;2023-03-01T13:04:11;4.03;;;3.70;;
11386;SDS011;5748;53.102;8.456;2023-03-01T13:06:57;4.00;;;3.67;;
11386;SDS011;5748;53.102;8.456;2023-03-01T13:09:36;3.90;;;3.60;;
11386;SDS011;5748;53.102;8.456;2023-03-01T13:15:25;3.80;;;3.50;;
11386;SDS011;5748;53.102;8.456;2023-03-01T13:18:11;3.57;;;3.27;;
11386;SDS011;5748;53.102;8.456;2023-03-01T13:20:57;4.10;;;3.70;;
11386;SDS011;5748;53.102;8.456;2023-03-01T13:23:29;3.90;;;3.60;;
11386;SDS011;5748;53.102;8.456;2023-03-01T13:26:00;4.07;;;3.67;;
11386;SDS011;5748;53.102;8.456;2023-03-01T13:28:41;4.20;;;3.80;;
11386;SDS011;5748;53.102;8.456;2023-03-01T13:37:32;4.33;;;3.93;;
11386;SDS011;5748;53.102;8.456;2023-03-01T13:43:29;4.63;;;4.23;;
11386;SDS011;5748;53.102;8.456;2023-03-01T13:45:58;5.20;;;4.70;;
11386;SDS011;5748;53.102;8.456;2023-03-01T13:48:29;4.40;;;4.00;;
11386;SDS011;5748;53.102;8.456;2023-03-01T13:50:58;4.00;;;3.70;;
11386;SDS011;5748;53.102;8.456;2023-03-01T13:53:29;4.03;;;3.73;;
11386;SDS011;5748;53.102;8.456;2023-03-01T13:56:11;3.70;;;3.40;;
11386;SDS011;5748;53.102;8.456;2023-03-01T13:58:46;4.40;;;4.00;;
11386;SDS011;5748;53.102;8.456;2023-03-01T14:01:21;4.27;;;3.87;;
11386;SDS011;5748;53.102;8.456;2023-03-01T14:03:54;3.87;;;3.50;;
11386;SDS011;5748;53.102;8.456;2023-03-01T14:06:22;3.90;;;3.60;;
11386;SDS011;5748;53.102;8.456;2023-03-01T14:08:59;4.20;;;3.80;;
11386;SDS011;5748;53.102;8.456;2023-03-01T14:11:37;3.77;;;3.47;;
11386;SDS011;5748;53.102;8.456;2023-03-01T14:14:52;3.10;;;2.80;;
11386;SDS011;5748;53.102;8.456;2023-03-01T14:17:31;3.50;;;3.20;;
11386;SDS011;5748;53.102;8.456;2023-03-01T14:20:17;3.73;;;3.43;;
11386;SDS011;5748;53.102;8.456;2023-03-01T14:22:47;3.53;;;3.23;;
11386;SDS011;5748;53.102;8.456;2023-03-01T14:25:25;3.50;;;3.20;;
11386;SDS011;5748;53.102;8.456;2023-03-01T14:27:57;3.50;;;3.20;;
11386;SDS011;5748;53.102;8.456;2023-03-01T14:30:32;3.83;;;3.53;;
11386;SDS011;5748;53.102;8.456;2023-03-01T14:33:04;3.80;;;3.33;;
11386;SDS011;5748;53.102;8.456;2023-03-01T14:35:42;4.70;;;4.30;;
11386;SDS011;5748;53.102;8.456;2023-03-01T14:38:20;4.07;;;3.77;;
11386;SDS011;5748;53.102;8.456;2023-03-01T14:40:48;4.00;;;3.60;;
11386;SDS011;5748;53.102;8.456;2023-03-01T14:43:22;4.30;;;3.90;;
11386;SDS011;5748;53.102;8.456;2023-03-01T14:45:52;3.83;;;3.53;;
11386;SDS011;5748;53.102;8.456;2023-03-01T14:48:19;3.60;;;3.30;;
11386;SDS011;5748;53.102;8.456;2023-03-01T14:50:47;4.00;;;3.60;;
11386;SDS011;5748;53.102;8.456;2023-03-01T14:53:16;4.60;;;4.20;;
11386;SDS011;5748;53.102;8.456;2023-03-01T14:55:46;3.80;;;3.37;;
11386;SDS011;5748;53.102;8.456;2023-03-01T14:58:18;3.97;;;3.63;;
11386;SDS011;5748;53.102;8.456;2023-03-01T15:00:50;3.97;;;3.67;;
11386;SDS011;5748;53.102;8.456;2023-03-01T15:03:23;4.00;;;3.57;;
11386;SDS011;5748;53.102;8.456;2023-03-01T15:05:56;4.13;;;3.73;;
11386;SDS011;5748;53.102;8.456;2023-03-01T15:08:24;5.13;;;4.03;;
11386;SDS011;5748;53.102;8.456;2023-03-01T15:11:17;3.97;;;3.60;;
11386;SDS011;5748;53.102;8.456;2023-03-01T15:13:49;4.13;;;3.73;;
11386;SDS011;5748;53.102;8.456;2023-03-01T15:16:18;4.27;;;3.87;;
11386;SDS011;5748;53.102;8.456;2023-03-01T15:18:57;3.67;;;3.37;;
11386;SDS011;5748;53.102;8.456;2023-03-01T15:21:29;3.90;;;3.50;;
11386;SDS011;5748;53.102;8.456;2023-03-01T15:24:00;3.93;;;3.53;;
11386;SDS011;5748;53.102;8.456;2023-03-01T15:26:37;3.70;;;3.40;;
11386;SDS011;5748;53.102;8.456;2023-03-01T15:29:11;4.10;;;3.70;;
11386;SDS011;5748;53.102;8.456;2023-03-01T15:31:53;3.90;;;3.50;;
11386;SDS011;5748;53.102;8.456;2023-03-01T15:34:24;3.87;;;3.50;;
11386;SDS011;5748;53.102;8.456;2023-03-01T15:36:52;4.20;;;3.50;;
11386;SDS011;5748;53.102;8.456;2023-03-01T15:39:38;3.93;;;3.53;;
11386;SDS011;5748;53.102;8.456;2023-03-01T15:42:09;4.10;;;3.70;;
11386;SDS011;5748;53.102;8.456;2023-03-01T15:44:40;3.40;;;3.10;;
11386;SDS011;5748;53.102;8.456;2023-03-01T15:47:29;3.47;;;3.17;;
11386;SDS011;5748;53.102;8.456;2023-03-01T15:50:11;3.67;;;3.37;;
11386;SDS011;5748;53.102;8.456;2023-03-01T15:52:44;4.27;;;3.87;;
11386;SDS011;5748;53.102;8.456;2023-03-01T15:55:15;4.00;;;3.60;;
11386;SDS011;5748;53.102;8.456;2023-03-01T15:57:44;3.80;;;3.50;;
11386;SDS011;5748;53.102;8.456;2023-03-01T16:00:13;3.80;;;3.43;;